createdAt,value
2023-04-22T00:01:41.077Z,100031.69
2023-04-22T00:06:42.725Z,100017.44
2023-04-22T00:11:44.303Z,100020.38
2023-04-22T00:16:45.974Z,100023.44
2023-04-22T00:21:47.686Z,100016.00
2023-04-22T00:26:49.284Z,100005.78
2023-04-22T00:31:51.377Z,100008.59
2023-04-22T00:36:53.129Z,100003.59
2023-04-22T00:41:55.315Z,99999.38
2023-04-22T00:46:57.119Z,100005.88
2023-04-22T00:51:59.351Z,99996.00
2023-04-22T00:57:01.010Z,99995.13
2023-04-22T01:02:03.989Z,100000.03
2023-04-22T01:07:06.573Z,99996.81
2023-04-22T01:12:08.364Z,99997.47
2023-04-22T01:17:10.657Z,99995.91
2023-04-22T01:22:14.077Z,99987.03
2023-04-22T01:27:15.849Z,99989.34
2023-04-22T01:32:17.910Z,99980.47
2023-04-22T01:37:20.571Z,99985.31
2023-04-22T01:42:22.241Z,99980.22
2023-04-22T01:47:23.952Z,99977.88
2023-04-22T01:52:27.579Z,99970.41
2023-04-22T01:57:29.549Z,99980.09
2023-04-22T02:02:31.622Z,99964.44
2023-04-22T02:07:33.273Z,99976.91
2023-04-22T02:12:34.945Z,99969.28
2023-04-22T02:17:36.580Z,99965.41
2023-04-22T02:22:38.659Z,99963.25
2023-04-22T02:27:40.320Z,99948.31
2023-04-22T02:32:42.072Z,99956.38
2023-04-22T02:37:43.717Z,99947.72
2023-04-22T02:42:45.319Z,99949.09
2023-04-22T02:47:47.010Z,99950.06
2023-04-22T02:52:49.707Z,99944.91
2023-04-22T02:57:51.419Z,99950.75
2023-04-22T03:02:53.494Z,99942.91
2023-04-22T03:07:59.852Z,99944.97
2023-04-22T03:13:02.724Z,99945.63
2023-04-22T03:18:04.885Z,99942.59
2023-04-22T03:23:07.981Z,99939.41
2023-04-22T03:28:10.805Z,99935.38
2023-04-22T03:33:12.545Z,99927.97
2023-04-22T03:38:23.126Z,99922.75
2023-04-22T03:43:26.201Z,99926.38
2023-04-22T03:48:37.057Z,99933.44
2023-04-22T03:53:44.642Z,99932.84
2023-04-22T03:58:51.624Z,99939.41
2023-04-22T04:03:53.640Z,99933.16
2023-04-22T04:09:01.673Z,99924.06
2023-04-22T04:14:04.516Z,99924.63
2023-04-22T04:19:12.647Z,99924.00
2023-04-22T04:24:15.582Z,99923.00
2023-04-22T04:29:23.753Z,99927.06
2023-04-22T04:34:37.546Z,99923.91
2023-04-22T04:39:42.267Z,99929.47
2023-04-22T04:44:47.166Z,99926.03
2023-04-22T04:49:50.099Z,99933.81
2023-04-22T04:54:51.868Z,99931.53
2023-04-22T04:59:53.806Z,99929.84
2023-04-22T05:04:57.025Z,99924.78
2023-04-22T05:09:59.934Z,99932.94
2023-04-22T05:15:02.162Z,99937.59
2023-04-22T05:20:04.975Z,99941.03
2023-04-22T05:25:07.262Z,99942.56
2023-04-22T05:30:09.482Z,99941.72
2023-04-22T05:35:11.304Z,99946.00
2023-04-22T05:40:13.349Z,99942.84
2023-04-22T05:45:15.693Z,99949.72
2023-04-22T05:50:17.614Z,99944.00
2023-04-22T05:55:28.625Z,99946.00
2023-04-22T06:00:30.416Z,99940.41
2023-04-22T06:05:49.792Z,99943.16
2023-04-22T06:10:51.520Z,99950.47
2023-04-22T06:15:53.581Z,99953.13
2023-04-22T06:20:55.754Z,99958.75
2023-04-22T06:25:58.800Z,99944.28
2023-04-22T06:31:02.165Z,99942.09
2023-04-22T06:36:05.204Z,99931.06
2023-04-22T06:41:07.574Z,99939.44
2023-04-22T06:46:13.311Z,99940.38
2023-04-22T06:51:35.043Z,99942.22
2023-04-22T06:56:36.942Z,99954.84
2023-04-22T07:01:38.542Z,99950.25
2023-04-22T07:06:41.160Z,99950.13
2023-04-22T07:11:42.739Z,99942.53
2023-04-22T07:16:49.311Z,99943.38
2023-04-22T07:21:50.979Z,99933.66
2023-04-22T07:26:52.550Z,99928.78
2023-04-22T07:31:54.247Z,99935.31
2023-04-22T07:36:55.841Z,99933.47
2023-04-22T07:41:57.723Z,99928.06
2023-04-22T07:46:59.435Z,99929.16
2023-04-22T07:52:01.120Z,99916.09
2023-04-22T07:57:02.934Z,99925.28
2023-04-22T08:02:04.544Z,99916.81
2023-04-22T08:07:26.444Z,99909.44
2023-04-22T08:12:27.954Z,99911.13
2023-04-22T08:17:29.520Z,99912.47
2023-04-22T08:22:32.067Z,99915.41
2023-04-22T08:27:33.656Z,99910.75
2023-04-22T08:32:35.285Z,99913.03
2023-04-22T08:37:37.055Z,99906.78
2023-04-22T08:42:38.636Z,99906.47
2023-04-22T08:47:40.577Z,99905.25
2023-04-22T08:52:43.041Z,99895.44
2023-04-22T08:57:45.364Z,99897.38
2023-04-22T09:02:48.320Z,99897.19
2023-04-22T09:07:50.245Z,99888.69
2023-04-22T09:12:52.369Z,99891.38
2023-04-22T09:17:54.335Z,99877.06
2023-04-22T09:22:57.287Z,99872.28
2023-04-22T09:27:59.464Z,99885.00
2023-04-22T09:33:03.353Z,99870.53
2023-04-22T09:38:08.001Z,99858.03
2023-04-22T09:43:10.724Z,99858.22
2023-04-22T09:48:14.286Z,99861.16
2023-04-22T09:53:17.472Z,99848.84
2023-04-22T09:58:20.994Z,99839.91
2023-04-22T10:03:22.687Z,99836.75
2023-04-22T10:08:24.520Z,99847.63
2023-04-22T10:13:26.063Z,99830.91
2023-04-22T10:18:28.830Z,99836.78
2023-04-22T10:23:33.030Z,99826.75
2023-04-22T10:28:34.871Z,99814.25
2023-04-22T10:33:37.567Z,99821.25
2023-04-22T10:39:00.692Z,99826.66
2023-04-22T10:44:06.324Z,99815.22
2023-04-22T10:49:18.171Z,99806.03
2023-04-22T10:54:31.365Z,99813.56
2023-04-22T10:59:46.242Z,99810.03
2023-04-22T11:04:48.325Z,99804.16
2023-04-22T11:09:59.378Z,99808.13
2023-04-22T11:15:15.256Z,99795.81
2023-04-22T11:20:19.623Z,99794.09
2023-04-22T11:25:22.271Z,99800.19
2023-04-22T11:30:25.748Z,99797.31
2023-04-22T11:35:30.146Z,99795.84
2023-04-22T11:40:35.813Z,99782.88
2023-04-22T11:45:39.889Z,99782.31
2023-04-22T11:50:44.125Z,99775.19
2023-04-22T11:55:47.338Z,99761.34
2023-04-22T12:00:51.226Z,99770.56
2023-04-22T12:05:57.783Z,99767.00
2023-04-22T12:11:01.758Z,99764.84
2023-04-22T12:16:07.043Z,99760.69
2023-04-22T12:21:10.438Z,99766.75
2023-04-22T12:26:13.224Z,99753.19
2023-04-22T12:31:15.420Z,99749.63
2023-04-22T12:36:18.108Z,99750.66
2023-04-22T12:41:19.792Z,99746.44
2023-04-22T12:46:21.452Z,99734.75
2023-04-22T12:51:23.114Z,99722.81
2023-04-22T12:56:26.900Z,99733.84
2023-04-22T13:01:28.954Z,99729.22
2023-04-22T13:06:32.325Z,99718.69
2023-04-22T13:11:33.897Z,99722.13
2023-04-22T13:16:35.709Z,99716.44
2023-04-22T13:21:37.416Z,99716.88
2023-04-22T13:26:39.097Z,99713.50
2023-04-22T13:31:44.669Z,99706.53
2023-04-22T13:36:46.348Z,99706.06
2023-04-22T13:41:47.885Z,99704.94
2023-04-22T13:46:49.547Z,99701.22
2023-04-22T13:51:51.229Z,99689.41
2023-04-22T13:56:53.702Z,99682.31
2023-04-22T14:01:55.241Z,99674.75
2023-04-22T14:06:56.810Z,99672.78
2023-04-22T14:11:58.715Z,99670.19
2023-04-22T14:17:00.364Z,99656.34
2023-04-22T14:22:02.019Z,99658.81
2023-04-22T14:27:03.704Z,99643.06
2023-04-22T14:32:05.367Z,99646.69
2023-04-22T14:37:06.905Z,99630.84
2023-04-22T14:42:08.548Z,99628.59
2023-04-22T14:47:10.170Z,99630.75
2023-04-22T14:52:11.782Z,99622.00
2023-04-22T14:57:13.454Z,99625.78
2023-04-22T15:02:15.912Z,99618.16
2023-04-22T15:07:17.719Z,99612.97
2023-04-22T15:12:19.360Z,99604.75
2023-04-22T15:17:21.495Z,99604.50
2023-04-22T15:22:24.107Z,99596.81
2023-04-22T15:27:26.948Z,99591.25
2023-04-22T15:32:28.574Z,99582.66
2023-04-22T15:37:30.307Z,99579.00
2023-04-22T15:42:32.344Z,99574.00
2023-04-22T15:47:35.003Z,99574.34
2023-04-22T15:52:37.920Z,99568.59
2023-04-22T15:57:40.932Z,99569.81
2023-04-22T16:02:43.800Z,99563.16
2023-04-22T16:07:45.633Z,99559.09
2023-04-22T16:12:47.212Z,99555.59
2023-04-22T16:17:48.908Z,99541.13
2023-04-22T16:22:50.578Z,99543.22
2023-04-22T16:27:52.169Z,99534.34
2023-04-22T16:32:54.071Z,99532.06
2023-04-22T16:37:55.696Z,99523.41
2023-04-22T16:43:02.799Z,99521.31
2023-04-22T16:48:04.401Z,99518.59
2023-04-22T16:53:07.800Z,99511.19
2023-04-22T16:58:09.445Z,99504.50
2023-04-22T17:03:12.238Z,99512.03
2023-04-22T17:08:14.044Z,99509.88
2023-04-22T17:13:16.085Z,99517.44
2023-04-22T17:18:17.681Z,99520.78
2023-04-22T17:23:19.912Z,99513.44
2023-04-22T17:28:21.523Z,99516.63
2023-04-22T17:33:23.113Z,99509.00
2023-04-22T17:38:24.788Z,99516.00
2023-04-22T17:43:26.384Z,99515.34
2023-04-22T17:48:27.947Z,99515.88
2023-04-22T17:53:29.510Z,99519.69
2023-04-22T17:58:31.133Z,99514.56
2023-04-22T18:03:33.235Z,99525.91
2023-04-22T18:08:35.137Z,99527.00
2023-04-22T18:13:36.724Z,99529.13
2023-04-22T18:18:38.767Z,99525.91
2023-04-22T18:23:40.340Z,99530.75
2023-04-22T18:28:43.482Z,99538.94
2023-04-22T18:33:45.238Z,99536.88
2023-04-22T18:38:46.830Z,99541.94
2023-04-22T18:43:48.604Z,99537.59
2023-04-22T18:48:50.421Z,99543.81
2023-04-22T18:53:52.294Z,99543.44
2023-04-22T18:58:55.307Z,99548.00
2023-04-22T19:03:57.087Z,99540.16
2023-04-22T19:08:58.886Z,99544.53
2023-04-22T19:14:02.825Z,99546.78
2023-04-22T19:19:04.472Z,99543.47
2023-04-22T19:24:06.658Z,99541.00
2023-04-22T19:29:08.656Z,99543.69
2023-04-22T19:34:10.995Z,99537.47
2023-04-22T19:39:12.619Z,99540.19
2023-04-22T19:44:14.173Z,99539.56
2023-04-22T19:49:17.225Z,99529.38
2023-04-22T19:54:21.442Z,99535.19
2023-04-22T19:59:23.112Z,99530.03
2023-04-22T20:04:25.704Z,99530.47
2023-04-22T20:09:27.528Z,99520.47
2023-04-22T20:14:29.318Z,99513.84
2023-04-22T20:19:31.290Z,99515.06
2023-04-22T20:24:36.080Z,99518.41
2023-04-22T20:29:40.674Z,99518.19
2023-04-22T20:34:42.729Z,99506.16
2023-04-22T20:39:44.438Z,99511.72
2023-04-22T20:44:46.280Z,99507.38
2023-04-22T20:49:47.911Z,99502.78
2023-04-22T20:54:55.359Z,99504.69
2023-04-22T20:59:57.114Z,99493.47
2023-04-22T21:04:59.457Z,99495.09
2023-04-22T21:10:01.252Z,99491.97
2023-04-22T21:15:03.207Z,99488.03
2023-04-22T21:20:05.601Z,99483.47
2023-04-22T21:25:07.804Z,99479.72
2023-04-22T21:30:10.125Z,99472.44
2023-04-22T21:35:11.757Z,99483.03
2023-04-22T21:40:13.726Z,99469.97
2023-04-22T21:45:15.361Z,99469.75
2023-04-22T21:50:18.069Z,99474.50
2023-04-22T21:55:20.672Z,99482.78
2023-04-22T22:00:24.921Z,99464.31
2023-04-22T22:05:26.511Z,99466.81
2023-04-22T22:10:28.103Z,99459.75
2023-04-22T22:15:30.390Z,99465.56
2023-04-22T22:20:32.174Z,99464.72
2023-04-22T22:25:33.774Z,99461.00
2023-04-22T22:30:35.421Z,99459.75
2023-04-22T22:35:37.048Z,99467.19
2023-04-22T22:40:38.639Z,99457.19
2023-04-22T22:45:40.969Z,99456.75
2023-04-22T22:50:43.574Z,99460.50
2023-04-22T22:55:45.168Z,99462.97
2023-04-22T23:00:46.791Z,99456.75
2023-04-22T23:05:48.390Z,99449.81
2023-04-22T23:10:50.444Z,99446.69
2023-04-22T23:15:52.009Z,99448.38
2023-04-22T23:20:53.729Z,99449.44
2023-04-22T23:25:56.356Z,99440.06
2023-04-22T23:30:57.999Z,99435.88
2023-04-22T23:36:00.423Z,99440.06
2023-04-22T23:41:02.021Z,99430.91
2023-04-22T23:46:03.833Z,99438.84
2023-04-22T23:51:05.444Z,99433.41
2023-04-22T23:56:07.460Z,99436.78
